Time;durP1;ratioP1;P1;durP2;ratioP2;P2;SDS_P1;SDS_P2;PMS_P1;PMS_P2;Temp;Humidity;BMP_temperature;BMP_pressure;BME280_temperature;BME280_humidity;BME280_pressure;Samples;Min_cycle;Max_cycle;Signal;HPM_P1;HPM_P2
2021/11/27 00:01:27;;;;;;;2.25;1.00;;;9.00;99.90;;;;;;5032927;28;20042;-73
2021/11/27 00:04:31;;;;;;;4.75;1.20;;;8.90;99.90;;;;;;5027486;28;20480;-73
2021/11/27 00:07:37;;;;;;;4.00;1.42;;;8.70;99.90;;;;;;5028985;28;20041;-73
2021/11/27 00:10:44;;;;;;;6.38;2.00;;;8.70;99.90;;;;;;5033413;28;20045;-73
2021/11/27 00:13:48;;;;;;;5.70;2.00;;;8.80;99.90;;;;;;5031792;28;20041;-73
2021/11/27 00:16:53;;;;;;;25.52;9.90;;;8.90;99.90;;;;;;5032851;28;20488;-73
2021/11/27 00:19:57;;;;;;;9.13;2.13;;;8.80;99.90;;;;;;5032898;28;20061;-73
2021/11/27 00:23:01;;;;;;;4.32;1.50;;;8.80;99.90;;;;;;5031680;28;20045;-73
2021/11/27 00:26:09;;;;;;;4.13;1.50;;;8.80;99.90;;;;;;5032205;28;20037;-73
2021/11/27 00:29:13;;;;;;;6.68;2.63;;;8.70;99.90;;;;;;5028900;28;20033;-73
2021/11/27 00:32:18;;;;;;;4.85;2.53;;;8.70;99.90;;;;;;5031303;28;20037;-73
2021/11/27 00:35:22;;;;;;;7.10;2.85;;;8.70;99.90;;;;;;5025976;28;20156;-73
2021/11/27 00:38:27;;;;;;;4.35;2.17;;;8.60;99.90;;;;;;5026964;28;20373;-73
2021/11/27 00:41:30;;;;;;;4.38;1.60;;;8.60;99.90;;;;;;5031485;28;20472;-73
2021/11/27 00:44:34;;;;;;;5.50;1.40;;;8.60;99.90;;;;;;5028344;28;20366;-73
2021/11/27 00:47:41;;;;;;;3.38;1.20;;;8.60;99.90;;;;;;5028962;28;20034;-73
2021/11/27 00:51:17;;;;;;;3.40;1.20;;;8.60;99.90;;;;;;5032671;28;20041;-73
2021/11/27 00:54:22;;;;;;;8.90;1.25;;;8.70;99.90;;;;;;5028638;28;20045;-73
2021/11/27 00:57:25;;;;;;;3.97;1.45;;;8.80;99.90;;;;;;5025249;28;20045;-73
2021/11/27 01:00:37;;;;;;;6.20;1.52;;;8.90;99.90;;;;;;5027173;28;20037;-73
2021/11/27 01:03:43;;;;;;;1.88;1.20;;;8.90;99.90;;;;;;5031354;28;20030;-73
2021/11/27 01:06:49;;;;;;;3.65;2.30;;;8.90;99.90;;;;;;5031102;28;20038;-73
2021/11/27 01:09:53;;;;;;;6.30;2.20;;;8.90;99.90;;;;;;5042358;28;20392;-73
2021/11/27 01:12:58;;;;;;;2.92;1.17;;;8.90;99.90;;;;;;5039752;28;20041;-73
2021/11/27 01:16:04;;;;;;;2.55;0.95;;;8.90;99.90;;;;;;5029570;28;20045;-73
2021/11/27 01:19:10;;;;;;;32.17;20.30;;;8.90;99.90;;;;;;5042569;28;20041;-73
2021/11/27 01:22:17;;;;;;;20.35;12.20;;;8.90;99.90;;;;;;5029230;28;20052;-73
2021/11/27 01:25:23;;;;;;;16.40;10.25;;;8.90;99.90;;;;;;5027679;28;20507;-73
2021/11/27 01:28:27;;;;;;;10.60;2.22;;;8.90;99.90;;;;;;5034897;28;20057;-73
2021/11/27 01:31:32;;;;;;;6.10;1.48;;;8.90;99.90;;;;;;5027198;28;20041;-73
2021/11/27 01:34:37;;;;;;;7.55;3.42;;;8.90;99.90;;;;;;5029845;28;20033;-73
2021/11/27 01:37:41;;;;;;;4.30;1.85;;;8.90;99.90;;;;;;5027363;28;20488;-73
2021/11/27 01:40:46;;;;;;;9.02;2.53;;;8.90;99.90;;;;;;5038765;28;20033;-73
2021/11/27 01:43:51;;;;;;;6.13;1.98;;;8.70;99.90;;;;;;5039866;28;20038;-73
2021/11/27 01:46:55;;;;;;;7.25;2.17;;;8.70;99.90;;;;;;5028256;28;20041;-73
2021/11/27 01:49:59;;;;;;;3.63;1.55;;;8.60;99.90;;;;;;5030330;28;20480;-73
2021/11/27 01:53:04;;;;;;;11.57;2.90;;;8.50;99.90;;;;;;5030671;28;20029;-73
2021/11/27 01:56:17;;;;;;;4.00;2.00;;;8.50;99.90;;;;;;5041419;28;20036;-73
2021/11/27 01:59:24;;;;;;;14.32;4.30;;;8.50;99.90;;;;;;5019310;28;20373;-73
2021/11/27 02:02:28;;;;;;;10.15;3.72;;;8.40;99.90;;;;;;5029802;28;20048;-73
2021/11/27 02:05:32;;;;;;;6.18;3.42;;;8.30;99.90;;;;;;5031268;28;20491;-73
2021/11/27 02:08:39;;;;;;;8.90;3.78;;;8.20;99.90;;;;;;5029036;28;20037;-73
2021/11/27 02:11:45;;;;;;;9.73;2.85;;;8.10;99.90;;;;;;5038557;28;20045;-73
2021/11/27 02:14:49;;;;;;;5.65;2.65;;;8.10;99.90;;;;;;5040894;28;20037;-73
2021/11/27 02:18:00;;;;;;;6.05;1.92;;;8.10;99.90;;;;;;5040401;28;20033;-73
2021/11/27 02:21:08;;;;;;;7.22;2.28;;;8.10;99.90;;;;;;5041181;28;20476;-73
2021/11/27 02:24:18;;;;;;;4.85;1.83;;;8.10;99.90;;;;;;5034540;28;20049;-73
2021/11/27 02:27:23;;;;;;;6.72;1.98;;;8.20;99.90;;;;;;5029950;28;20065;-73
2021/11/27 02:30:28;;;;;;;11.02;2.38;;;8.20;99.90;;;;;;5039227;28;20041;-74
2021/11/27 02:33:32;;;;;;;11.00;2.70;;;8.30;99.90;;;;;;5029250;28;20044;-73
2021/11/27 02:36:39;;;;;;;3.92;1.88;;;8.30;99.90;;;;;;5035144;28;20384;-73
2021/11/27 02:39:43;;;;;;;5.75;1.88;;;8.30;99.90;;;;;;5027221;28;20472;-73
2021/11/27 02:42:47;;;;;;;6.72;1.83;;;8.40;99.90;;;;;;5029903;28;20385;-73
2021/11/27 02:45:52;;;;;;;6.32;2.20;;;8.40;99.90;;;;;;5038216;28;20033;-73
2021/11/27 02:48:56;;;;;;;12.30;2.35;;;8.40;99.90;;;;;;5029751;28;20037;-73
2021/11/27 02:52:00;;;;;;;6.43;1.88;;;8.30;99.90;;;;;;5033309;28;20057;-73
2021/11/27 02:55:05;;;;;;;5.38;1.60;;;8.20;99.90;;;;;;5017622;28;20477;-73
2021/11/27 02:58:09;;;;;;;14.43;2.42;;;8.30;99.90;;;;;;5022082;28;20464;-73
2021/11/27 03:01:14;;;;;;;7.30;2.10;;;8.10;99.90;;;;;;5034100;28;20052;-73
2021/11/27 03:04:20;;;;;;;10.55;1.83;;;8.10;99.90;;;;;;5029305;28;20472;-73
2021/11/27 03:07:25;;;;;;;6.85;2.05;;;8.10;99.90;;;;;;5037285;28;20048;-73
2021/11/27 03:10:29;;;;;;;4.78;1.70;;;8.20;99.90;;;;;;5025179;28;20038;-73
2021/11/27 03:13:37;;;;;;;7.75;2.03;;;8.20;99.90;;;;;;5028856;28;20038;-73
2021/11/27 03:16:44;;;;;;;10.30;2.33;;;8.20;99.90;;;;;;5036848;28;20034;-73
2021/11/27 03:19:48;;;;;;;11.30;2.15;;;8.20;99.90;;;;;;5026464;28;20048;-73
2021/11/27 03:22:53;;;;;;;11.93;2.53;;;8.20;99.90;;;;;;5029989;28;20388;-73
2021/11/27 03:25:58;;;;;;;10.50;2.10;;;8.20;99.90;;;;;;5033675;28;20049;-73
2021/11/27 03:29:02;;;;;;;7.93;2.53;;;8.20;99.90;;;;;;5040744;28;20045;-73
2021/11/27 03:32:12;;;;;;;14.63;2.53;;;8.20;99.90;;;;;;5029378;28;20388;-73
2021/11/27 03:35:40;;;;;;;14.50;3.08;;;8.20;99.90;;;;;;5031435;28;20040;-73
2021/11/27 03:38:47;;;;;;;11.68;2.25;;;8.20;99.90;;;;;;5033691;28;20048;-73
2021/11/27 03:41:51;;;;;;;14.45;2.65;;;8.20;99.90;;;;;;5033584;28;20048;-73
2021/11/27 03:44:55;;;;;;;7.53;2.03;;;8.10;99.90;;;;;;5037867;28;20053;-73
2021/11/27 03:48:14;;;;;;;7.95;1.95;;;8.20;99.90;;;;;;5039367;28;20042;-73
2021/11/27 03:51:52;;;;;;;16.40;3.35;;;8.20;99.90;;;;;;5031451;28;20045;-73
2021/11/27 03:54:57;;;;;;;12.68;2.90;;;8.20;99.90;;;;;;5044250;28;20060;-73
2021/11/27 03:58:02;;;;;;;10.18;1.90;;;8.20;99.90;;;;;;5031781;28;20045;-73
2021/11/27 04:01:09;;;;;;;11.82;2.55;;;8.40;99.90;;;;;;5031870;28;20757;-73
2021/11/27 04:04:13;;;;;;;19.08;2.78;;;8.30;99.90;;;;;;5032885;28;20510;-73
2021/11/27 04:07:18;;;;;;;10.88;2.47;;;8.40;99.90;;;;;;5042211;28;20494;-73
2021/11/27 04:10:23;;;;;;;14.90;2.28;;;8.40;99.90;;;;;;5040188;28;20039;-73
2021/11/27 04:13:28;;;;;;;16.00;2.50;;;8.30;99.90;;;;;;5028121;28;20503;-73
2021/11/27 04:16:33;;;;;;;13.50;2.40;;;8.30;99.90;;;;;;5039490;28;20415;-73
2021/11/27 04:19:37;;;;;;;18.27;2.92;;;8.30;99.90;;;;;;5038392;28;20040;-73
2021/11/27 04:22:41;;;;;;;14.52;3.55;;;8.40;99.90;;;;;;5032505;28;20609;-73
2021/11/27 04:25:45;;;;;;;23.70;3.05;;;8.50;99.90;;;;;;5031821;28;20044;-73
2021/11/27 04:28:52;;;;;;;13.65;3.13;;;8.70;99.90;;;;;;5031700;28;20048;-73
2021/11/27 04:31:57;;;;;;;10.32;2.75;;;8.80;99.90;;;;;;5040399;28;20064;-73
2021/11/27 04:35:03;;;;;;;10.60;2.45;;;8.80;99.90;;;;;;5042567;28;20523;-74
2021/11/27 04:38:08;;;;;;;13.63;4.38;;;8.80;99.90;;;;;;5038983;28;20053;-73
2021/11/27 04:41:13;;;;;;;15.73;2.45;;;8.70;99.90;;;;;;5041511;28;20060;-73
2021/11/27 04:44:17;;;;;;;17.05;2.28;;;8.80;99.90;;;;;;5025066;28;20044;-73
2021/11/27 04:47:21;;;;;;;12.57;2.63;;;8.80;99.90;;;;;;5029565;28;20064;-73
2021/11/27 04:50:28;;;;;;;17.40;3.55;;;8.90;99.90;;;;;;5036678;28;20032;-73
2021/11/27 04:53:32;;;;;;;12.07;2.20;;;8.90;99.90;;;;;;5035948;28;20391;-73
2021/11/27 04:56:36;;;;;;;13.02;2.15;;;8.90;99.90;;;;;;5032817;28;20048;-73
2021/11/27 04:59:41;;;;;;;24.55;2.55;;;8.90;99.90;;;;;;5027760;28;20056;-73
2021/11/27 05:02:45;;;;;;;13.00;2.40;;;8.90;99.90;;;;;;5039957;28;20727;-73
2021/11/27 05:05:49;;;;;;;12.40;2.40;;;8.90;99.90;;;;;;5028635;28;20388;-73
2021/11/27 05:08:53;;;;;;;13.65;3.28;;;8.70;99.90;;;;;;5030976;28;20052;-73
2021/11/27 05:11:58;;;;;;;11.77;2.45;;;8.50;99.90;;;;;;5042798;28;20802;-73
2021/11/27 05:15:04;;;;;;;21.02;3.30;;;8.30;99.90;;;;;;5033848;28;20396;-73
2021/11/27 05:18:10;;;;;;;12.02;3.17;;;8.10;99.90;;;;;;5033668;28;20045;-73
2021/11/27 05:21:39;;;;;;;12.65;2.95;;;8.10;99.90;;;;;;5028965;28;20396;-73
2021/11/27 05:24:44;;;;;;;18.20;3.83;;;8.00;99.90;;;;;;5036041;28;20044;-73
2021/11/27 05:27:59;;;;;;;18.25;4.55;;;8.10;99.90;;;;;;5035413;28;20507;-73
2021/11/27 05:31:18;;;;;;;15.35;3.40;;;8.20;99.90;;;;;;5034279;28;20048;-73
2021/11/27 05:37:29;;;;;;;14.50;3.08;;;8.40;99.90;;;;;;5030609;28;20036;-73
2021/11/27 05:40:33;;;;;;;12.88;2.97;;;8.40;99.90;;;;;;5037429;28;20048;-74
2021/11/27 05:43:37;;;;;;;23.45;3.00;;;8.30;99.90;;;;;;5031557;28;20530;-73
2021/11/27 05:46:41;;;;;;;18.67;3.25;;;8.30;99.90;;;;;;5035924;28;20044;-73
2021/11/27 05:49:45;;;;;;;9.20;2.45;;;8.30;99.90;;;;;;5034253;28;20503;-73
2021/11/27 05:52:54;;;;;;;17.27;2.72;;;8.40;99.90;;;;;;5041741;28;20049;-73
2021/11/27 05:55:59;;;;;;;12.40;2.65;;;8.40;99.90;;;;;;5022405;28;20607;-73
2021/11/27 05:59:03;;;;;;;14.98;2.83;;;8.50;99.90;;;;;;5030041;28;20060;-73
2021/11/27 06:02:08;;;;;;;10.82;2.80;;;8.60;99.90;;;;;;5030310;28;20052;-73
2021/11/27 06:05:12;;;;;;;9.48;2.33;;;8.50;99.90;;;;;;5025484;28;20507;-73
2021/11/27 06:08:16;;;;;;;12.32;2.47;;;8.50;99.90;;;;;;5028876;28;20038;-73
2021/11/27 06:11:20;;;;;;;16.23;2.58;;;8.60;99.90;;;;;;5030682;28;20999;-73
2021/11/27 06:14:24;;;;;;;9.52;2.30;;;8.70;99.90;;;;;;5030630;28;20048;-73
2021/11/27 06:17:28;;;;;;;11.82;2.58;;;8.60;99.90;;;;;;5027893;28;20030;-73
2021/11/27 06:20:33;;;;;;;15.88;2.50;;;8.40;99.90;;;;;;5025563;28;20076;-73
2021/11/27 06:23:37;;;;;;;12.88;2.40;;;8.40;99.90;;;;;;5031029;28;20068;-73
2021/11/27 06:26:41;;;;;;;10.63;3.13;;;8.30;99.90;;;;;;5029433;28;20041;-73
2021/11/27 06:29:46;;;;;;;9.07;2.45;;;8.20;99.90;;;;;;5027264;28;20033;-73
2021/11/27 06:32:51;;;;;;;16.65;2.30;;;8.00;99.90;;;;;;5030530;28;20037;-73
2021/11/27 06:35:55;;;;;;;13.07;2.88;;;7.80;99.90;;;;;;5029298;28;20056;-73
2021/11/27 06:38:59;;;;;;;18.63;3.00;;;7.70;99.90;;;;;;5023563;28;20240;-73
2021/11/27 06:42:05;;;;;;;10.48;3.72;;;7.60;99.90;;;;;;5030078;28;20044;-73
2021/11/27 06:45:19;;;;;;;11.18;3.20;;;7.50;99.90;;;;;;5030872;28;20115;-73
2021/11/27 06:48:41;;;;;;;12.95;2.63;;;7.50;99.90;;;;;;5029764;28;20052;-73
2021/11/27 06:51:46;;;;;;;10.50;2.55;;;7.50;99.90;;;;;;5032148;28;20048;-73
2021/11/27 06:54:50;;;;;;;10.68;2.28;;;7.60;99.90;;;;;;5030846;28;20056;-73
2021/11/27 06:57:54;;;;;;;13.70;2.70;;;7.70;99.90;;;;;;5030826;28;20052;-73
2021/11/27 07:00:58;;;;;;;14.52;3.00;;;7.90;99.90;;;;;;5028591;28;20040;-73
2021/11/27 07:04:21;;;;;;;;;;;8.70;99.90;;;;;;5030635;28;20052;-73
2021/11/27 07:07:40;;;;;;;6.85;1.50;;;10.50;99.90;;;;;;5027051;28;19917;-74
2021/11/27 07:11:03;;;;;;;12.15;1.95;;;12.40;99.90;;;;;;5028512;28;20036;-74
2021/11/27 07:14:08;;;;;;;8.82;1.70;;;13.60;99.90;;;;;;5040499;28;20053;-74
2021/11/27 07:17:12;;;;;;;6.70;1.30;;;14.60;99.90;;;;;;5030827;28;20060;-73
2021/11/27 07:20:15;;;;;;;12.50;1.92;;;15.30;99.90;;;;;;5033719;28;20052;-74
2021/11/27 07:23:19;;;;;;;8.18;2.10;;;15.40;99.90;;;;;;5026953;28;20051;-73
2021/11/27 07:26:24;;;;;;;14.48;3.20;;;13.80;99.90;;;;;;5028476;28;20040;-74
2021/11/27 07:29:43;;;;;;;6.88;1.70;;;12.10;99.90;;;;;;5030474;28;20044;-73
2021/11/27 07:32:48;;;;;;;14.25;2.03;;;11.40;99.90;;;;;;5033400;28;20048;-74
2021/11/27 07:35:52;;;;;;;8.00;1.77;;;11.00;99.90;;;;;;5033828;28;20507;-74
2021/11/27 07:38:56;;;;;;;6.35;1.83;;;10.70;99.90;;;;;;5032463;28;20041;-74
2021/11/27 07:42:00;;;;;;;7.53;1.35;;;10.50;99.90;;;;;;5032046;28;20043;-74
2021/11/27 07:45:20;;;;;;;5.28;1.73;;;11.00;99.90;;;;;;5037354;28;20038;-73
2021/11/27 07:48:55;;;;;;;4.68;1.42;;;12.00;99.90;;;;;;5038788;28;20060;-73
2021/11/27 07:52:21;;;;;;;6.30;1.63;;;13.10;99.90;;;;;;5026985;28;20064;-73
2021/11/27 07:55:26;;;;;;;6.13;2.30;;;14.10;99.90;;;;;;5032272;28;20052;-74
2021/11/27 07:58:30;;;;;;;13.90;1.58;;;15.10;99.90;;;;;;5028905;28;20044;-73
2021/11/27 08:01:34;;;;;;;9.10;1.83;;;16.60;99.90;;;;;;5029270;28;20415;-73
2021/11/27 08:04:38;;;;;;;15.27;1.95;;;16.00;99.90;;;;;;5032678;28;20045;-73
2021/11/27 08:07:43;;;;;;;10.27;3.03;;;15.70;99.90;;;;;;5029405;28;20041;-73
2021/11/27 08:10:47;;;;;;;10.25;1.85;;;15.80;99.90;;;;;;5032876;28;20048;-74
2021/11/27 08:13:52;;;;;;;7.65;1.77;;;13.90;99.90;;;;;;5032464;28;20056;-73
2021/11/27 08:16:56;;;;;;;5.10;1.30;;;14.30;99.90;;;;;;5032233;28;20388;-74
2021/11/27 08:20:00;;;;;;;8.25;1.63;;;16.40;99.90;;;;;;5033062;28;20052;-74
2021/11/27 08:23:05;;;;;;;14.23;3.92;;;16.30;99.90;;;;;;5032372;28;20506;-74
2021/11/27 08:26:09;;;;;;;10.35;1.70;;;17.10;99.90;;;;;;5023654;28;20468;-73
2021/11/27 08:29:13;;;;;;;15.32;1.95;;;15.60;99.90;;;;;;5030171;28;20040;-74
2021/11/27 08:32:18;;;;;;;6.75;1.77;;;15.60;99.90;;;;;;5032678;28;20040;-73
2021/11/27 08:35:22;;;;;;;7.07;2.25;;;14.20;99.90;;;;;;5032281;28;20048;-74
2021/11/27 08:38:29;;;;;;;8.77;1.52;;;13.80;99.90;;;;;;5042448;28;20376;-73
2021/11/27 08:41:34;;;;;;;7.32;1.80;;;16.20;99.90;;;;;;5035650;28;20040;-73
2021/11/27 08:44:38;;;;;;;8.32;1.60;;;16.20;99.90;;;;;;5028026;28;20048;-73
2021/11/27 08:47:42;;;;;;;7.57;2.25;;;15.70;99.90;;;;;;5032429;28;20117;-74
2021/11/27 08:50:45;;;;;;;7.28;2.15;;;15.00;99.90;;;;;;5029651;28;20045;-73
2021/11/27 08:53:49;;;;;;;17.00;1.70;;;14.30;99.90;;;;;;5032029;28;20061;-74
2021/11/27 08:56:53;;;;;;;5.70;1.52;;;13.90;99.90;;;;;;5031651;28;20044;-73
2021/11/27 08:59:57;;;;;;;9.20;2.20;;;12.70;99.90;;;;;;5032224;28;20400;-74
2021/11/27 09:03:01;;;;;;;8.75;1.83;;;13.00;99.90;;;;;;5030805;28;20048;-73
2021/11/27 09:06:06;;;;;;;10.32;1.60;;;12.80;99.90;;;;;;5031346;28;20044;-73
2021/11/27 09:09:10;;;;;;;7.35;1.60;;;14.40;99.90;;;;;;5030861;28;20040;-73
2021/11/27 09:12:19;;;;;;;6.50;1.58;;;13.70;99.90;;;;;;5028886;28;20045;-73
2021/11/27 09:15:24;;;;;;;10.50;2.03;;;13.20;99.90;;;;;;5025858;28;20052;-72
2021/11/27 09:18:29;;;;;;;10.95;1.45;;;12.50;99.90;;;;;;5032163;28;20039;-74
2021/11/27 09:21:34;;;;;;;9.07;1.65;;;13.30;99.90;;;;;;5031948;28;20404;-73
2021/11/27 09:24:38;;;;;;;7.30;1.95;;;14.50;99.90;;;;;;5031231;28;20048;-73
2021/11/27 09:27:42;;;;;;;8.75;1.20;;;13.10;99.90;;;;;;5030825;28;20380;-73
2021/11/27 09:30:46;;;;;;;9.40;1.58;;;13.50;99.90;;;;;;5029156;28;20048;-73
2021/11/27 09:33:51;;;;;;;8.75;1.88;;;13.60;99.90;;;;;;5031071;28;20362;-73
2021/11/27 09:36:55;;;;;;;15.20;1.63;;;14.70;99.90;;;;;;5029802;28;20052;-72
2021/11/27 09:39:58;;;;;;;7.03;1.42;;;14.70;99.90;;;;;;5030800;28;20509;-73
2021/11/27 09:43:03;;;;;;;11.40;1.50;;;15.10;99.90;;;;;;5030808;28;20052;-73
2021/11/27 09:46:08;;;;;;;7.30;1.23;;;17.10;99.90;;;;;;5031155;28;20392;-73
2021/11/27 09:49:19;;;;;;;10.48;1.50;;;17.80;99.90;;;;;;5023942;28;20044;-73
2021/11/27 09:52:23;;;;;;;6.07;1.27;;;17.40;99.90;;;;;;5031830;28;20048;-74
2021/11/27 09:55:27;;;;;;;11.57;1.70;;;18.00;99.90;;;;;;5030835;28;20502;-74
2021/11/27 09:58:33;;;;;;;12.75;1.33;;;19.30;99.60;;;;;;5027552;28;20041;-74
2021/11/27 10:01:38;;;;;;;9.80;1.67;;;19.60;97.40;;;;;;5028996;28;20056;-73
2021/11/27 10:04:48;;;;;;;7.65;1.77;;;17.50;99.90;;;;;;5027393;28;20049;-73
2021/11/27 10:07:52;;;;;;;9.55;1.48;;;16.60;99.50;;;;;;5028724;28;20033;-73
2021/11/27 10:10:56;;;;;;;4.47;1.48;;;17.90;99.90;;;;;;5041086;28;20045;-74
2021/11/27 10:14:05;;;;;;;4.88;1.35;;;18.40;98.40;;;;;;5030509;28;20403;-73
2021/11/27 10:17:18;;;;;;;6.00;1.50;;;17.10;99.10;;;;;;5025504;28;20036;-73
2021/11/27 10:20:23;;;;;;;10.52;1.75;;;17.30;99.90;;;;;;5029014;28;20076;-73
2021/11/27 10:23:31;;;;;;;5.13;1.00;;;15.80;99.90;;;;;;5032080;28;20044;-74
2021/11/27 10:26:39;;;;;;;7.10;1.60;;;16.10;99.90;;;;;;5026437;28;20095;-73
2021/11/27 10:29:54;;;;;;;8.88;1.73;;;14.80;99.90;;;;;;5030712;28;20040;-73
2021/11/27 10:33:00;;;;;;;11.73;1.80;;;14.60;99.90;;;;;;5030666;28;20399;-73
2021/11/27 10:36:07;;;;;;;7.32;1.40;;;13.90;99.90;;;;;;5030886;28;20397;-73
2021/11/27 10:39:11;;;;;;;5.95;1.10;;;15.30;99.90;;;;;;5023229;28;20057;-74
2021/11/27 10:42:19;;;;;;;5.78;1.13;;;15.00;99.90;;;;;;5024273;28;20040;-73
2021/11/27 10:45:36;;;;;;;7.47;1.30;;;13.70;99.90;;;;;;5024276;28;20040;-73
2021/11/27 10:48:42;;;;;;;9.25;1.60;;;12.90;99.90;;;;;;5029772;28;20044;-73
2021/11/27 10:51:46;;;;;;;8.13;1.23;;;12.40;99.90;;;;;;5027252;28;20372;-73
2021/11/27 10:54:58;;;;;;;5.40;1.13;;;12.40;99.90;;;;;;5030427;28;20048;-73
2021/11/27 10:58:02;;;;;;;4.85;1.00;;;13.70;99.90;;;;;;5030001;28;20049;-73
2021/11/27 11:01:06;;;;;;;6.55;1.05;;;15.30;99.90;;;;;;5031147;28;20055;-73
2021/11/27 11:04:17;;;;;;;3.92;0.90;;;17.00;99.90;;;;;;5027329;28;20048;-74
2021/11/27 11:07:26;;;;;;;7.75;0.93;;;16.70;99.90;;;;;;5028786;28;20404;-73
2021/11/27 11:10:40;;;;;;;3.67;0.80;;;16.10;99.90;;;;;;5029333;28;20037;-74
2021/11/27 11:13:45;;;;;;;5.07;0.93;;;16.10;99.90;;;;;;5027944;28;20052;-73
2021/11/27 11:16:59;;;;;;;5.07;0.80;;;15.20;99.90;;;;;;5030050;28;20490;-74
2021/11/27 11:20:27;;;;;;;6.63;1.98;;;13.80;99.90;;;;;;5029342;28;20543;-73
2021/11/27 11:23:34;;;;;;;3.13;1.20;;;13.00;99.90;;;;;;5024693;28;20045;-73
2021/11/27 11:26:42;;;;;;;3.70;0.88;;;12.40;99.90;;;;;;5027144;28;20060;-74
2021/11/27 11:29:49;;;;;;;4.80;1.00;;;12.30;99.90;;;;;;5026741;28;20036;-73
2021/11/27 11:32:56;;;;;;;6.28;1.10;;;12.30;99.90;;;;;;5029664;28;20052;-74
2021/11/27 11:36:03;;;;;;;7.05;1.10;;;13.80;99.90;;;;;;5029477;28;20052;-73
2021/11/27 11:39:08;;;;;;;9.68;1.10;;;15.00;99.90;;;;;;5023010;28;20037;-73
2021/11/27 11:42:13;;;;;;;9.98;1.80;;;13.20;99.90;;;;;;5030537;28;20526;-73
2021/11/27 11:45:17;;;;;;;8.82;1.30;;;12.20;99.90;;;;;;5028750;28;20036;-75
2021/11/27 11:48:26;;;;;;;6.97;1.30;;;12.60;99.90;;;;;;5025762;28;20064;-73
2021/11/27 11:51:50;;;;;;;8.82;2.88;;;12.40;99.90;;;;;;5024940;28;20513;-74
2021/11/27 11:55:03;;;;;;;8.32;1.30;;;12.30;99.90;;;;;;5028666;28;20045;-73
2021/11/27 11:58:22;;;;;;;4.68;1.08;;;12.20;99.90;;;;;;5027401;28;20057;-73
2021/11/27 12:01:28;;;;;;;5.47;1.27;;;12.50;99.90;;;;;;5026633;28;20058;-73
2021/11/27 12:04:34;;;;;;;7.20;1.20;;;12.60;99.90;;;;;;5027214;28;20044;-74
2021/11/27 12:07:47;;;;;;;4.05;0.98;;;13.30;99.90;;;;;;5030828;28;20040;-73
2021/11/27 12:10:51;;;;;;;5.30;1.10;;;13.40;99.90;;;;;;5031797;28;20412;-73
2021/11/27 12:13:56;;;;;;;4.85;1.00;;;13.00;99.90;;;;;;5034011;28;20040;-74
2021/11/27 12:17:06;;;;;;;5.55;0.90;;;12.70;99.90;;;;;;5033880;28;20044;-73
2021/11/27 12:20:17;;;;;;;3.38;1.23;;;12.20;99.90;;;;;;5031362;28;20056;-73
2021/11/27 12:23:39;;;;;;;3.00;0.88;;;11.50;99.90;;;;;;5029992;28;20523;-73
2021/11/27 12:27:08;;;;;;;5.45;1.10;;;11.40;99.90;;;;;;5031089;28;20052;-73
2021/11/27 12:30:12;;;;;;;3.13;0.80;;;11.50;99.90;;;;;;5029547;28;20493;-73
2021/11/27 12:33:53;;;;;;;1.65;0.57;;;11.50;99.90;;;;;;5027538;28;20391;-74
2021/11/27 12:36:57;;;;;;;2.35;0.80;;;14.70;99.90;;;;;;5027859;28;20048;-73
2021/11/27 12:40:01;;;;;;;2.67;0.70;;;17.50;99.90;;;;;;5033224;28;20040;-74
2021/11/27 12:43:13;;;;;;;2.25;0.75;;;19.90;99.90;;;;;;5033596;28;20044;-74
2021/11/27 12:46:30;;;;;;;2.00;0.60;;;19.80;98.70;;;;;;5033487;28;20041;-73
2021/11/27 12:49:34;;;;;;;4.65;0.85;;;16.60;99.90;;;;;;5027809;28;20044;-73
2021/11/27 12:52:40;;;;;;;1.80;0.75;;;14.80;99.90;;;;;;5031893;28;20061;-73
2021/11/27 12:55:44;;;;;;;2.22;0.70;;;13.70;99.90;;;;;;5030279;28;20048;-74
2021/11/27 12:58:48;;;;;;;3.83;0.70;;;12.90;99.90;;;;;;5032803;28;20400;-74
2021/11/27 13:01:52;;;;;;;3.92;1.15;;;12.40;99.90;;;;;;5031444;28;20060;-73
2021/11/27 13:04:56;;;;;;;5.00;1.50;;;11.70;99.90;;;;;;5031847;28;20048;-73
2021/11/27 13:08:02;;;;;;;10.27;2.70;;;11.30;99.90;;;;;;5032989;28;20048;-73
2021/11/27 13:11:11;;;;;;;3.28;0.90;;;10.40;99.90;;;;;;5032881;28;20049;-73
2021/11/27 13:14:22;;;;;;;8.18;1.40;;;9.90;99.90;;;;;;5027002;28;20045;-72
2021/11/27 13:17:26;;;;;;;4.35;1.10;;;9.80;99.90;;;;;;5033192;28;20030;-72
2021/11/27 13:20:50;;;;;;;5.88;1.05;;;9.80;99.90;;;;;;5027750;28;20045;-72
2021/11/27 13:23:56;;;;;;;3.78;1.13;;;10.30;99.90;;;;;;5030853;28;20041;-72
2021/11/27 13:27:00;;;;;;;4.28;1.00;;;10.70;99.90;;;;;;5031738;28;20032;-73
2021/11/27 13:30:11;;;;;;;2.70;1.05;;;11.10;99.90;;;;;;5032072;28;20041;-73
2021/11/27 13:33:17;;;;;;;7.32;1.80;;;11.50;99.90;;;;;;5027612;28;20480;-72
2021/11/27 13:36:34;;;;;;;5.85;1.40;;;11.50;99.90;;;;;;5026435;28;20041;-73
2021/11/27 13:39:38;;;;;;;3.60;0.90;;;11.60;99.90;;;;;;5028104;28;20060;-73
2021/11/27 13:42:42;;;;;;;4.53;1.17;;;11.70;99.90;;;;;;5029003;28;20051;-73
2021/11/27 13:45:46;;;;;;;3.53;1.38;;;12.20;99.90;;;;;;5029839;28;20044;-73
2021/11/27 13:48:50;;;;;;;4.78;1.27;;;12.40;99.90;;;;;;5031442;28;20033;-73
2021/11/27 13:51:55;;;;;;;4.07;0.95;;;13.00;99.90;;;;;;5032395;28;20048;-73
2021/11/27 13:55:05;;;;;;;3.47;1.30;;;14.30;99.90;;;;;;5032119;28;20040;-74
2021/11/27 13:58:15;;;;;;;4.93;1.08;;;15.30;99.90;;;;;;5023918;28;20044;-74
2021/11/27 14:01:25;;;;;;;6.22;1.88;;;14.50;99.90;;;;;;5025777;28;20037;-73
2021/11/27 14:04:33;;;;;;;5.40;1.50;;;13.10;99.90;;;;;;5027227;28;20408;-74
2021/11/27 14:07:44;;;;;;;7.30;1.10;;;12.40;99.90;;;;;;5030567;28;20044;-73
2021/11/27 14:11:08;;;;;;;5.75;1.00;;;12.00;99.90;;;;;;5029462;28;20915;-73
2021/11/27 14:14:13;;;;;;;4.30;0.93;;;11.30;99.90;;;;;;5029095;28;20041;-73
2021/11/27 14:17:17;;;;;;;7.40;1.92;;;11.10;99.90;;;;;;5023976;28;20052;-73
2021/11/27 14:20:21;;;;;;;5.18;1.50;;;11.00;99.90;;;;;;5024996;28;20045;-73
2021/11/27 14:23:25;;;;;;;6.25;2.20;;;10.90;99.90;;;;;;5035472;28;20048;-73
2021/11/27 14:26:39;;;;;;;5.68;2.42;;;10.80;99.90;;;;;;5027673;28;20040;-73
2021/11/27 14:29:43;;;;;;;9.13;2.65;;;10.70;99.90;;;;;;5027629;28;20083;-73
2021/11/27 14:32:47;;;;;;;3.63;1.08;;;10.60;99.90;;;;;;5031911;28;20040;-73
2021/11/27 14:36:21;;;;;;;19.35;7.28;;;10.60;99.90;;;;;;5029649;28;20448;-73
2021/11/27 14:39:27;;;;;;;14.93;3.72;;;10.50;99.90;;;;;;5031207;28;20037;-73
2021/11/27 14:42:31;;;;;;;11.00;3.28;;;10.40;99.90;;;;;;5026841;28;20050;-73
2021/11/27 14:45:48;;;;;;;17.60;5.43;;;10.50;99.90;;;;;;5029858;28;20053;-73
2021/11/27 14:48:52;;;;;;;6.40;3.30;;;10.50;99.90;;;;;;5031063;28;20052;-73
2021/11/27 14:52:06;;;;;;;6.78;3.03;;;10.50;99.90;;;;;;5031534;28;20048;-73
2021/11/27 14:55:10;;;;;;;8.88;3.90;;;10.40;99.90;;;;;;5031449;28;20041;-73
2021/11/27 14:58:14;;;;;;;14.98;6.32;;;10.40;99.90;;;;;;5023648;28;20511;-73
2021/11/27 15:01:18;;;;;;;17.13;6.50;;;10.40;99.90;;;;;;5024944;28;20049;-73
2021/11/27 15:04:23;;;;;;;6.70;2.78;;;10.40;99.90;;;;;;5031184;28;20036;-73
2021/11/27 15:07:29;;;;;;;7.05;1.85;;;10.40;99.90;;;;;;5031328;28;20507;-73
2021/11/27 15:10:33;;;;;;;1.33;0.63;;;10.40;99.90;;;;;;5026747;28;20037;-73
2021/11/27 15:13:36;;;;;;;4.72;0.68;;;10.20;99.90;;;;;;5031887;28;20503;-74
2021/11/27 15:16:43;;;;;;;1.75;0.68;;;10.00;99.90;;;;;;5030654;28;20402;-73
2021/11/27 15:19:49;;;;;;;5.22;0.68;;;9.80;99.90;;;;;;5030579;28;20040;-74
2021/11/27 15:22:54;;;;;;;1.45;0.60;;;9.70;99.90;;;;;;5030028;28;20033;-74
2021/11/27 15:26:00;;;;;;;13.43;1.25;;;9.60;99.90;;;;;;5041516;28;20037;-73
2021/11/27 15:29:05;;;;;;;6.18;1.90;;;9.50;99.90;;;;;;5030169;28;20040;-73
2021/11/27 15:32:09;;;;;;;5.20;3.13;;;9.50;99.90;;;;;;5031025;28;20029;-73
2021/11/27 15:35:16;;;;;;;19.88;11.18;;;9.50;99.90;;;;;;5039615;28;20038;-74
2021/11/27 15:38:21;;;;;;;14.95;9.77;;;9.50;99.90;;;;;;5029910;28;20048;-73
2021/11/27 15:41:25;;;;;;;17.05;11.45;;;9.50;99.90;;;;;;5028176;28;20380;-74
2021/11/27 15:44:31;;;;;;;6.25;4.00;;;9.50;99.90;;;;;;5034674;28;20040;-74
2021/11/27 15:47:36;;;;;;;5.68;4.15;;;9.40;99.90;;;;;;5030487;28;20041;-74
2021/11/27 15:50:42;;;;;;;4.18;1.75;;;9.40;99.90;;;;;;5033670;28;20037;-73
2021/11/27 15:53:46;;;;;;;19.23;9.93;;;9.40;99.90;;;;;;5031766;28;20481;-73
2021/11/27 15:56:51;;;;;;;13.35;9.60;;;9.30;99.90;;;;;;5034582;28;20048;-73
2021/11/27 15:59:55;;;;;;;21.27;13.65;;;9.30;99.90;;;;;;5032436;28;20530;-73
2021/11/27 16:02:59;;;;;;;21.85;13.95;;;9.30;99.90;;;;;;5032501;28;20048;-73
2021/11/27 16:06:08;;;;;;;10.35;6.10;;;9.30;99.90;;;;;;5033435;28;20044;-73
2021/11/27 16:09:13;;;;;;;11.85;7.15;;;9.20;99.90;;;;;;5031569;28;20041;-73
2021/11/27 16:12:17;;;;;;;19.25;8.50;;;9.20;99.90;;;;;;5029459;28;20044;-73
2021/11/27 16:15:21;;;;;;;11.88;6.47;;;9.10;99.90;;;;;;5028073;28;20041;-73
2021/11/27 16:18:26;;;;;;;13.18;7.05;;;9.10;99.90;;;;;;5033157;28;20048;-73